Time;durP1;ratioP1;P1;durP2;ratioP2;P2;SDS_P1;SDS_P2;PMS_P1;PMS_P2;Temp;Humidity;BMP_temperature;BMP_pressure;BME280_temperature;BME280_humidity;BME280_pressure;Samples;Min_cycle;Max_cycle;Signal;HPM_P1;HPM_P2
2021/07/25 00:02:22;;;;;;;18.83;8.95;;;19.70;99.90;;;;;;5055900;28;20029;-94
2021/07/25 00:04:48;;;;;;;11.30;7.90;;;19.50;99.90;;;;;;5038731;28;20024;-94
2021/07/25 00:07:14;;;;;;;13.77;8.23;;;19.40;99.90;;;;;;5038530;28;20112;-93
2021/07/25 00:09:39;;;;;;;22.70;10.00;;;19.50;99.90;;;;;;5038498;28;20029;-94
2021/07/25 00:12:06;;;;;;;17.00;8.48;;;19.50;99.90;;;;;;5037728;28;20057;-94
2021/07/25 00:14:32;;;;;;;11.00;7.47;;;19.50;99.90;;;;;;5037628;28;20395;-93
2021/07/25 00:16:58;;;;;;;12.25;7.30;;;19.50;99.90;;;;;;5038703;28;20025;-93
2021/07/25 00:19:23;;;;;;;17.55;8.10;;;19.70;99.90;;;;;;5038018;28;20079;-92
2021/07/25 00:21:49;;;;;;;13.57;8.15;;;19.80;99.90;;;;;;5041406;28;20029;-94
2021/07/25 00:24:21;;;;;;;17.15;8.52;;;19.70;99.90;;;;;;5041874;28;20022;-93
2021/07/25 00:26:48;;;;;;;13.60;8.55;;;19.40;99.90;;;;;;5042166;28;20017;-94
2021/07/25 00:29:15;;;;;;;17.15;8.82;;;19.40;99.90;;;;;;5042191;28;20498;-94
2021/07/25 00:31:41;;;;;;;18.20;9.63;;;19.50;99.90;;;;;;5041283;28;20040;-92
2021/07/25 00:34:07;;;;;;;15.80;9.77;;;19.30;99.90;;;;;;5042034;28;20025;-93
2021/07/25 00:36:32;;;;;;;18.05;8.73;;;19.40;99.90;;;;;;5041661;28;20116;-94
2021/07/25 00:38:58;;;;;;;19.70;9.13;;;19.40;99.90;;;;;;5041769;28;20045;-94
2021/07/25 00:41:24;;;;;;;12.52;8.50;;;19.60;99.90;;;;;;5041977;28;20036;-93
2021/07/25 00:43:50;;;;;;;18.70;9.10;;;19.70;99.90;;;;;;5041968;28;20029;-94
2021/07/25 00:46:17;;;;;;;18.15;10.15;;;19.70;99.90;;;;;;5041371;28;20017;-94
2021/07/25 00:48:45;;;;;;;26.00;9.32;;;19.70;99.90;;;;;;5041129;28;20518;-93
2021/07/25 00:51:11;;;;;;;19.23;9.43;;;19.80;99.90;;;;;;5041945;28;20033;-94
2021/07/25 00:53:40;;;;;;;21.27;9.95;;;19.70;99.90;;;;;;5041644;28;20029;-93
2021/07/25 00:56:09;;;;;;;17.45;9.02;;;19.50;99.90;;;;;;5041731;28;20028;-94
2021/07/25 00:58:40;;;;;;;13.70;8.10;;;19.50;99.90;;;;;;5041746;28;20112;-93
2021/07/25 01:01:07;;;;;;;15.57;8.73;;;19.50;99.90;;;;;;5041576;28;20025;-94
2021/07/25 01:03:57;;;;;;;16.23;8.35;;;19.50;99.90;;;;;;5041341;28;20120;-94
2021/07/25 01:06:47;;;;;;;20.52;8.50;;;19.60;99.90;;;;;;5042231;28;20044;-93
2021/07/25 01:09:19;;;;;;;20.73;8.85;;;19.50;99.90;;;;;;5059557;28;20087;-93
2021/07/25 01:11:56;;;;;;;15.90;8.15;;;19.60;99.90;;;;;;5041257;28;20031;-92
2021/07/25 01:14:32;;;;;;;17.73;8.55;;;19.80;99.90;;;;;;5070405;28;20104;-91
2021/07/25 01:17:22;;;;;;;13.27;7.68;;;19.70;99.90;;;;;;5072886;28;20024;-89
2021/07/25 01:19:49;;;;;;;16.83;7.93;;;19.70;99.90;;;;;;5042103;28;20100;-90
2021/07/25 01:22:15;;;;;;;13.27;6.90;;;19.90;99.90;;;;;;5040956;28;20024;-89
2021/07/25 01:24:41;;;;;;;17.20;6.95;;;19.90;99.90;;;;;;5039941;28;20021;-91
2021/07/25 01:27:10;;;;;;;9.18;6.72;;;19.70;99.90;;;;;;5039791;28;20024;-92
2021/07/25 01:29:40;;;;;;;16.10;7.22;;;19.30;99.90;;;;;;5039521;28;20518;-89
2021/07/25 01:32:06;;;;;;;12.07;6.60;;;19.40;99.90;;;;;;5038936;28;20051;-90
2021/07/25 01:34:32;;;;;;;11.90;6.32;;;19.30;99.90;;;;;;5039913;28;20028;-90
2021/07/25 01:37:00;;;;;;;10.55;6.15;;;19.30;99.90;;;;;;5040345;28;20031;-89
2021/07/25 01:39:29;;;;;;;9.63;6.35;;;19.40;99.90;;;;;;5039834;28;20415;-91
2021/07/25 01:41:55;;;;;;;12.50;6.80;;;19.30;99.90;;;;;;5057572;28;20035;-91
2021/07/25 01:44:20;;;;;;;13.57;6.18;;;19.40;99.90;;;;;;5039557;28;20017;-92
2021/07/25 01:46:46;;;;;;;15.20;6.40;;;19.50;99.90;;;;;;5039918;28;20045;-92
2021/07/25 01:49:12;;;;;;;13.23;6.40;;;19.60;99.90;;;;;;5057714;28;20025;-91
2021/07/25 01:51:37;;;;;;;14.95;5.68;;;19.60;99.90;;;;;;5040137;28;20083;-92
2021/07/25 01:54:04;;;;;;;8.60;5.97;;;19.50;99.90;;;;;;5040070;28;20083;-92
2021/07/25 01:56:29;;;;;;;17.48;5.15;;;19.60;99.90;;;;;;5040152;28;20036;-92
2021/07/25 01:58:56;;;;;;;12.95;4.40;;;19.60;99.90;;;;;;5057456;28;20021;-90
2021/07/25 02:01:22;;;;;;;12.95;5.25;;;19.30;99.90;;;;;;5039926;28;20029;-91
2021/07/25 02:03:49;;;;;;;11.35;4.18;;;19.40;99.90;;;;;;5039985;28;20498;-94
2021/07/25 02:06:15;;;;;;;9.52;4.60;;;19.30;99.90;;;;;;5039235;28;20058;-92
2021/07/25 02:08:41;;;;;;;18.05;5.15;;;19.30;99.90;;;;;;5040477;28;20107;-92
2021/07/25 02:11:08;;;;;;;8.13;4.53;;;19.30;99.90;;;;;;5040338;28;20032;-93
2021/07/25 02:13:34;;;;;;;8.02;4.68;;;19.30;99.90;;;;;;5040216;28;20037;-93
2021/07/25 02:16:00;;;;;;;11.23;4.95;;;19.30;99.90;;;;;;5039728;28;20083;-93
2021/07/25 02:18:26;;;;;;;10.00;4.47;;;19.40;99.90;;;;;;5040067;28;20476;-93
2021/07/25 02:20:52;;;;;;;9.48;4.35;;;19.50;99.90;;;;;;5040127;28;20024;-93
2021/07/25 02:23:17;;;;;;;7.53;4.28;;;19.50;99.90;;;;;;5039494;28;20029;-93
2021/07/25 02:25:43;;;;;;;9.98;4.60;;;19.40;99.90;;;;;;5038847;28;20062;-94
2021/07/25 02:28:09;;;;;;;7.03;4.97;;;19.50;99.90;;;;;;5038078;28;20021;-93
2021/07/25 02:30:35;;;;;;;7.10;4.43;;;19.60;99.90;;;;;;5037663;28;20048;-91
2021/07/25 02:33:01;;;;;;;7.95;4.22;;;19.60;99.90;;;;;;5055569;28;20417;-91
2021/07/25 02:35:27;;;;;;;10.98;4.75;;;19.70;99.90;;;;;;5037704;28;20037;-93
2021/07/25 02:37:53;;;;;;;9.93;4.55;;;19.60;99.90;;;;;;5048480;28;20517;-92
2021/07/25 02:40:18;;;;;;;13.55;4.50;;;19.60;99.90;;;;;;5017831;28;20025;-93
2021/07/25 02:42:44;;;;;;;9.52;4.55;;;19.60;99.90;;;;;;5017589;28;20025;-93
2021/07/25 02:45:11;;;;;;;9.13;5.10;;;19.50;99.90;;;;;;5017778;28;20044;-92
2021/07/25 02:47:36;;;;;;;8.13;4.25;;;19.50;99.90;;;;;;5017745;28;20116;-93
2021/07/25 02:50:02;;;;;;;9.95;4.80;;;19.50;99.90;;;;;;5017773;28;20044;-93
2021/07/25 02:52:28;;;;;;;12.50;4.50;;;19.40;99.90;;;;;;5018025;28;20385;-93
2021/07/25 02:54:54;;;;;;;10.35;4.30;;;19.60;99.90;;;;;;5017738;28;20021;-94
2021/07/25 02:57:19;;;;;;;10.23;4.60;;;19.40;99.90;;;;;;5017823;28;20067;-93
2021/07/25 02:59:45;;;;;;;13.57;4.00;;;19.30;99.90;;;;;;5017681;28;20025;-93
2021/07/25 03:02:11;;;;;;;7.35;4.50;;;19.20;99.90;;;;;;5035334;28;20096;-94
2021/07/25 03:04:37;;;;;;;9.73;4.50;;;19.20;99.90;;;;;;5017546;28;20018;-94
2021/07/25 03:07:02;;;;;;;7.30;4.07;;;19.20;99.90;;;;;;5017535;28;20018;-94
2021/07/25 03:09:28;;;;;;;6.75;4.20;;;19.20;99.90;;;;;;5035464;28;20021;-94
2021/07/25 03:11:54;;;;;;;12.35;4.35;;;19.30;99.90;;;;;;5017625;28;20079;-93
2021/07/25 03:14:20;;;;;;;10.55;4.63;;;19.20;99.90;;;;;;5017452;28;20109;-93
2021/07/25 03:16:46;;;;;;;9.13;4.68;;;19.30;99.90;;;;;;5018242;28;20029;-94
2021/07/25 03:19:12;;;;;;;6.63;4.13;;;19.20;99.90;;;;;;5035889;28;20030;-93
2021/07/25 03:21:38;;;;;;;8.65;4.25;;;19.20;99.90;;;;;;5047299;28;20025;-91
2021/07/25 03:24:04;;;;;;;9.90;4.50;;;19.10;99.90;;;;;;5053715;28;20069;-92
2021/07/25 03:26:30;;;;;;;8.15;4.38;;;19.00;99.90;;;;;;5024670;28;20030;-93
2021/07/25 03:28:55;;;;;;;8.27;4.57;;;19.00;99.90;;;;;;5018940;28;20032;-93
2021/07/25 03:31:21;;;;;;;7.38;4.00;;;19.10;99.90;;;;;;5018264;28;20025;-93
2021/07/25 03:33:47;;;;;;;9.25;4.10;;;19.20;99.90;;;;;;5017599;28;20065;-93
2021/07/25 03:36:13;;;;;;;15.00;4.18;;;19.30;99.90;;;;;;5017460;28;20508;-93
2021/07/25 03:38:39;;;;;;;11.38;4.00;;;19.30;99.90;;;;;;5029753;28;20221;-93
2021/07/25 03:41:05;;;;;;;12.40;4.50;;;19.30;99.90;;;;;;5037007;28;20399;-93
2021/07/25 03:43:32;;;;;;;10.73;3.97;;;19.30;99.90;;;;;;5054772;28;20024;-93
2021/07/25 03:45:58;;;;;;;8.98;4.20;;;19.40;99.90;;;;;;5036809;28;20033;-93
2021/07/25 03:48:25;;;;;;;14.43;4.03;;;19.40;99.90;;;;;;5036896;28;20064;-93
2021/07/25 03:50:52;;;;;;;9.57;3.80;;;19.30;99.90;;;;;;5036588;28;20039;-93
2021/07/25 03:53:18;;;;;;;7.53;4.00;;;19.50;99.90;;;;;;5036551;28;20047;-93
2021/07/25 03:55:45;;;;;;;14.90;5.03;;;19.30;99.90;;;;;;5035759;28;20025;-94
2021/07/25 03:58:11;;;;;;;12.10;4.50;;;19.20;99.90;;;;;;5036762;28;20025;-94
2021/07/25 04:00:37;;;;;;;7.63;4.45;;;19.10;99.90;;;;;;5036528;28;20060;-93
2021/07/25 04:03:03;;;;;;;7.35;4.53;;;19.00;99.90;;;;;;5036658;28;20476;-94
2021/07/25 04:05:28;;;;;;;7.70;4.00;;;19.00;99.90;;;;;;5036692;28;20032;-94
2021/07/25 04:07:54;;;;;;;7.28;4.13;;;19.10;99.90;;;;;;5036413;28;20111;-92
2021/07/25 04:10:20;;;;;;;12.70;4.05;;;19.20;99.90;;;;;;5036559;28;20049;-93
2021/07/25 04:12:47;;;;;;;10.48;4.72;;;19.40;99.90;;;;;;5036406;28;20481;-94
2021/07/25 04:15:13;;;;;;;7.13;3.78;;;19.30;99.90;;;;;;5036892;28;20025;-93
2021/07/25 04:17:38;;;;;;;10.57;3.97;;;19.30;99.90;;;;;;5036244;28;20056;-94
2021/07/25 04:20:05;;;;;;;9.32;3.63;;;19.30;99.90;;;;;;5036346;28;20078;-93
2021/07/25 04:22:35;;;;;;;10.55;4.50;;;19.30;99.90;;;;;;5036048;28;20032;-93
2021/07/25 04:25:02;;;;;;;11.73;4.28;;;19.30;99.90;;;;;;5036793;28;20025;-93
2021/07/25 04:27:28;;;;;;;9.55;4.25;;;19.50;99.90;;;;;;5036319;28;20519;-93
2021/07/25 04:29:55;;;;;;;11.13;4.20;;;19.40;99.90;;;;;;5036263;28;20021;-93
2021/07/25 04:32:21;;;;;;;12.80;4.20;;;19.30;99.90;;;;;;5036240;28;20029;-94
2021/07/25 04:34:47;;;;;;;13.85;5.03;;;19.30;99.90;;;;;;5036127;28;20079;-93
2021/07/25 04:37:22;;;;;;;14.88;4.25;;;19.50;99.90;;;;;;5034386;28;20044;-93
2021/07/25 04:39:49;;;;;;;19.75;4.38;;;19.40;99.90;;;;;;5016295;28;20036;-93
2021/07/25 04:42:17;;;;;;;7.90;3.92;;;19.20;99.90;;;;;;5016113;28;20030;-93
2021/07/25 04:44:52;;;;;;;11.43;4.22;;;19.10;99.90;;;;;;5016220;28;20026;-93
2021/07/25 04:47:23;;;;;;;11.23;4.32;;;19.10;99.90;;;;;;5016405;28;20033;-94
2021/07/25 04:50:06;;;;;;;14.40;4.65;;;19.20;99.90;;;;;;5016485;28;20032;-93
2021/07/25 04:52:41;;;;;;;12.45;4.25;;;19.20;99.90;;;;;;5016223;28;20025;-93
2021/07/25 04:55:09;;;;;;;6.95;3.75;;;19.20;99.90;;;;;;5016074;28;20091;-93
2021/07/25 04:57:43;;;;;;;6.13;3.90;;;19.20;99.90;;;;;;5016166;28;20144;-93
2021/07/25 05:00:15;;;;;;;7.70;3.65;;;19.40;99.90;;;;;;5015956;28;20022;-92
2021/07/25 05:02:42;;;;;;;9.98;4.00;;;19.40;99.90;;;;;;5016023;28;20125;-93
2021/07/25 05:05:10;;;;;;;11.10;4.03;;;19.40;99.90;;;;;;5016082;28;20025;-93
2021/07/25 05:07:40;;;;;;;8.63;4.00;;;19.50;99.90;;;;;;5018458;28;20018;-92
2021/07/25 05:10:07;;;;;;;6.10;3.58;;;19.60;99.90;;;;;;5020239;28;20488;-92
2021/07/25 05:13:03;;;;;;;10.27;4.20;;;19.70;99.90;;;;;;5019539;28;20025;-93
2021/07/25 05:15:32;;;;;;;7.10;4.30;;;19.80;99.90;;;;;;5017324;28;20512;-92
2021/07/25 05:18:02;;;;;;;8.15;4.05;;;19.70;99.90;;;;;;5036848;28;20474;-93
2021/07/25 05:20:55;;;;;;;13.15;3.95;;;19.70;99.90;;;;;;5019228;28;20052;-93
2021/07/25 05:23:26;;;;;;;12.23;4.22;;;19.80;99.90;;;;;;5036996;28;20142;-92
2021/07/25 05:25:55;;;;;;;5.38;3.88;;;19.60;99.90;;;;;;5020097;28;20029;-93
2021/07/25 05:28:22;;;;;;;7.47;3.83;;;19.70;99.90;;;;;;5022617;28;20036;-91
2021/07/25 05:30:52;;;;;;;10.05;3.70;;;19.80;99.90;;;;;;5035107;28;20029;-91
2021/07/25 05:33:19;;;;;;;4.03;3.40;;;19.80;99.90;;;;;;5031959;28;20025;-92
2021/07/25 05:35:45;;;;;;;8.02;3.60;;;19.90;99.90;;;;;;5020836;28;20033;-92
2021/07/25 05:38:11;;;;;;;10.40;3.35;;;20.00;99.90;;;;;;5039215;28;20045;-92
2021/07/25 05:40:36;;;;;;;8.57;3.55;;;19.90;99.90;;;;;;5019455;28;20033;-92
2021/07/25 05:43:02;;;;;;;7.53;3.55;;;19.90;99.90;;;;;;5019205;28;20028;-92
2021/07/25 05:45:28;;;;;;;11.55;4.22;;;19.90;99.90;;;;;;5019157;28;20026;-92
2021/07/25 05:47:54;;;;;;;5.10;3.45;;;19.80;99.90;;;;;;5019549;28;20484;-93
2021/07/25 05:50:19;;;;;;;6.32;3.38;;;19.80;99.90;;;;;;5019863;28;20026;-92
2021/07/25 05:52:48;;;;;;;8.75;3.55;;;19.90;99.90;;;;;;5019104;28;20485;-92
2021/07/25 05:55:17;;;;;;;5.70;3.45;;;20.00;99.90;;;;;;5018566;28;20029;-92
2021/07/25 05:57:43;;;;;;;6.78;3.33;;;20.10;99.90;;;;;;5018435;28;20439;-92
2021/07/25 06:00:09;;;;;;;7.85;3.90;;;20.10;99.90;;;;;;5018604;28;20025;-91
2021/07/25 06:02:58;;;;;;;7.60;3.67;;;20.20;99.90;;;;;;5018594;28;20032;-92
2021/07/25 06:05:25;;;;;;;5.38;3.25;;;20.20;99.90;;;;;;5018762;28;20025;-93
2021/07/25 06:07:52;;;;;;;5.35;3.20;;;20.00;99.90;;;;;;5018414;28;20504;-91
2021/07/25 06:10:18;;;;;;;6.95;3.20;;;19.90;99.90;;;;;;5018509;28;20048;-92
2021/07/25 06:12:44;;;;;;;8.48;3.33;;;20.20;99.90;;;;;;5018667;28;20540;-93
2021/07/25 06:15:10;;;;;;;4.65;2.78;;;20.20;99.90;;;;;;5018209;28;20065;-92
2021/07/25 06:17:36;;;;;;;4.78;2.80;;;20.20;99.90;;;;;;5001704;28;20045;-92
2021/07/25 06:20:03;;;;;;;6.95;3.40;;;20.20;99.90;;;;;;5018131;28;20397;-93
2021/07/25 06:22:52;;;;;;;9.75;3.13;;;20.20;99.90;;;;;;5017982;28;20106;-92
2021/07/25 06:25:23;;;;;;;5.97;3.58;;;20.30;99.90;;;;;;5018275;28;20026;-93
2021/07/25 06:27:51;;;;;;;7.38;3.28;;;20.30;99.90;;;;;;5034754;28;20025;-93
2021/07/25 06:30:18;;;;;;;7.93;3.20;;;20.50;99.90;;;;;;5034636;28;20025;-92
2021/07/25 06:32:59;;;;;;;4.18;3.15;;;20.50;99.90;;;;;;5035489;28;20025;-93
2021/07/25 06:35:28;;;;;;;4.28;2.90;;;20.50;99.90;;;;;;5018205;28;20477;-93
2021/07/25 06:37:54;;;;;;;5.70;2.90;;;20.60;99.90;;;;;;5022202;28;20045;-93
2021/07/25 06:40:21;;;;;;;6.82;2.88;;;20.60;99.90;;;;;;5037661;28;20043;-94
2021/07/25 06:42:46;;;;;;;8.65;3.10;;;20.60;99.90;;;;;;5037990;28;20067;-93
2021/07/25 06:45:13;;;;;;;6.05;3.10;;;20.80;99.90;;;;;;5037628;28;20029;-92
2021/07/25 06:47:41;;;;;;;4.30;3.05;;;20.80;99.90;;;;;;5037711;28;20031;-93
2021/07/25 06:50:08;;;;;;;5.78;2.90;;;20.90;99.90;;;;;;5022295;28;20380;-93
2021/07/25 06:52:33;;;;;;;7.35;3.00;;;21.10;99.90;;;;;;5037509;28;20024;-93
2021/07/25 06:54:59;;;;;;;5.40;3.03;;;21.10;99.90;;;;;;5037566;28;20036;-92
2021/07/25 06:57:25;;;;;;;6.40;2.70;;;21.00;99.90;;;;;;5037275;28;20040;-93
2021/07/25 06:59:50;;;;;;;5.60;3.10;;;20.90;99.90;;;;;;5037049;28;20028;-92
2021/07/25 07:02:16;;;;;;;4.57;2.65;;;20.90;99.90;;;;;;5037183;28;20512;-93
2021/07/25 07:04:42;;;;;;;6.07;3.25;;;20.90;99.90;;;;;;5037201;28;20028;-92
2021/07/25 07:07:08;;;;;;;9.43;3.50;;;21.10;99.90;;;;;;5037121;28;20021;-93
2021/07/25 07:09:33;;;;;;;6.95;3.05;;;21.20;99.90;;;;;;5037105;28;20499;-92
2021/07/25 07:11:59;;;;;;;5.38;3.10;;;21.40;99.90;;;;;;5037278;28;20060;-93
2021/07/25 07:14:25;;;;;;;5.57;3.08;;;21.30;99.90;;;;;;5037144;28;20029;-93
2021/07/25 07:16:51;;;;;;;6.05;2.80;;;21.40;99.90;;;;;;5037152;28;20029;-93
2021/07/25 07:19:17;;;;;;;4.45;2.67;;;21.40;99.90;;;;;;5037233;28;20055;-93
2021/07/25 07:21:42;;;;;;;4.35;2.90;;;21.40;99.90;;;;;;5020402;28;20041;-92
2021/07/25 07:24:08;;;;;;;6.25;2.97;;;21.30;99.90;;;;;;5037026;28;20538;-93
2021/07/25 07:26:34;;;;;;;4.72;2.72;;;21.20;99.90;;;;;;5036881;28;20025;-92
2021/07/25 07:29:00;;;;;;;5.90;3.42;;;21.20;99.90;;;;;;5036635;28;20029;-93
2021/07/25 07:31:26;;;;;;;3.65;2.70;;;21.30;99.90;;;;;;5037382;28;20033;-92
2021/07/25 07:33:54;;;;;;;4.68;2.90;;;21.30;99.90;;;;;;5020647;28;20036;-94
2021/07/25 07:36:21;;;;;;;6.38;3.05;;;21.50;99.90;;;;;;5039186;28;20027;-94
2021/07/25 07:38:47;;;;;;;5.07;2.78;;;21.60;99.90;;;;;;5037774;28;20063;-94
2021/07/25 07:41:13;;;;;;;4.72;2.88;;;21.80;99.90;;;;;;5022020;28;20100;-94
2021/07/25 07:43:39;;;;;;;5.20;3.00;;;22.10;99.90;;;;;;5022654;28;20029;-95
2021/07/25 07:46:05;;;;;;;4.30;2.58;;;22.30;99.90;;;;;;5045521;28;20025;-92
2021/07/25 07:48:30;;;;;;;7.55;3.00;;;22.40;99.90;;;;;;5048438;28;20025;-93
2021/07/25 07:50:56;;;;;;;7.30;3.03;;;22.60;99.90;;;;;;5041283;28;20389;-94
2021/07/25 07:53:22;;;;;;;7.82;3.05;;;22.40;99.90;;;;;;5038059;28;20025;-93
2021/07/25 07:55:48;;;;;;;6.85;3.30;;;22.30;99.90;;;;;;5037498;28;20021;-93
2021/07/25 07:58:14;;;;;;;6.93;3.25;;;22.30;99.90;;;;;;5037504;28;20111;-93
2021/07/25 08:00:39;;;;;;;7.03;3.40;;;22.40;99.90;;;;;;5036925;28;20033;-93
2021/07/25 08:03:06;;;;;;;5.28;2.72;;;22.40;99.90;;;;;;5037218;28;20488;-93
2021/07/25 08:05:32;;;;;;;3.95;3.00;;;22.30;99.90;;;;;;5036880;28;20021;-92
2021/07/25 08:07:57;;;;;;;5.07;2.70;;;22.30;99.90;;;;;;5036719;28;20017;-93
2021/07/25 08:10:23;;;;;;;5.20;2.60;;;22.40;99.90;;;;;;5037042;28;20027;-95
2021/07/25 08:12:49;;;;;;;3.67;2.53;;;22.50;99.90;;;;;;5036856;28;20025;-95
2021/07/25 08:15:18;;;;;;;4.35;2.50;;;22.60;99.90;;;;;;5036869;28;20032;-93
2021/07/25 08:17:44;;;;;;;4.50;2.30;;;22.60;99.90;;;;;;5036713;28;20024;-93
2021/07/25 08:20:10;;;;;;;4.32;2.70;;;22.60;99.90;;;;;;5036261;28;20469;-93
2021/07/25 08:22:36;;;;;;;5.07;2.90;;;22.50;99.90;;;;;;5037022;28;20057;-94
2021/07/25 08:25:04;;;;;;;4.05;2.80;;;22.50;99.90;;;;;;5037175;28;20476;-92
2021/07/25 08:27:30;;;;;;;4.82;2.78;;;22.40;99.90;;;;;;5036412;28;20036;-93
2021/07/25 08:29:56;;;;;;;4.22;2.67;;;22.30;99.90;;;;;;5039271;28;20021;-94
2021/07/25 08:32:21;;;;;;;4.18;2.70;;;22.20;99.90;;;;;;5039009;28;20061;-93
2021/07/25 08:34:47;;;;;;;5.05;2.80;;;22.20;99.90;;;;;;5038606;28;20031;-93
2021/07/25 08:37:13;;;;;;;5.97;2.75;;;22.30;99.90;;;;;;5038184;28;20029;-93
2021/07/25 08:39:39;;;;;;;4.22;2.40;;;22.40;99.90;;;;;;5037874;28;20049;-93
2021/07/25 08:42:17;;;;;;;4.13;2.70;;;22.40;99.90;;;;;;5040925;28;20025;-94
2021/07/25 08:44:52;;;;;;;4.57;3.15;;;22.30;99.90;;;;;;5042774;28;20055;-93
2021/07/25 08:47:38;;;;;;;4.30;2.92;;;22.40;99.90;;;;;;5042469;28;20021;-92
2021/07/25 08:50:14;;;;;;;3.75;2.78;;;22.40;99.90;;;;;;5044621;28;20025;-94
2021/07/25 08:52:43;;;;;;;3.83;2.47;;;22.50;99.90;;;;;;5042096;28;20032;-95
2021/07/25 08:55:15;;;;;;;5.68;3.28;;;22.60;99.90;;;;;;5059340;28;20150;-94
2021/07/25 08:57:44;;;;;;;7.30;2.78;;;22.60;99.90;;;;;;5043013;28;20056;-93
2021/07/25 09:00:13;;;;;;;5.07;3.05;;;22.60;99.90;;;;;;5042603;28;20017;-94
2021/07/25 09:02:39;;;;;;;6.32;3.03;;;22.60;99.90;;;;;;5042454;28;20439;-93
2021/07/25 09:05:06;;;;;;;5.85;2.75;;;22.50;99.90;;;;;;5041628;28;20021;-93
2021/07/25 09:07:32;;;;;;;7.30;2.92;;;22.40;99.90;;;;;;5041253;28;20032;-93
2021/07/25 09:10:19;;;;;;;5.35;2.70;;;22.40;99.90;;;;;;5042166;28;20025;-94
2021/07/25 09:12:46;;;;;;;4.60;3.08;;;22.50;99.90;;;;;;5041663;28;20024;-93
2021/07/25 09:15:15;;;;;;;6.10;2.88;;;22.40;99.90;;;;;;5041743;28;20029;-93
2021/07/25 09:17:41;;;;;;;6.78;2.60;;;22.40;99.90;;;;;;5041148;28;20476;-93
2021/07/25 09:20:35;;;;;;;4.00;3.03;;;22.50;99.90;;;;;;5041612;28;20025;-94
2021/07/25 09:23:16;;;;;;;3.50;2.90;;;22.30;99.90;;;;;;5041238;28;20083;-94
2021/07/25 09:25:56;;;;;;;4.85;2.92;;;22.50;99.90;;;;;;5059187;28;20076;-94
2021/07/25 09:28:29;;;;;;;5.25;2.85;;;22.60;99.90;;;;;;5041148;28;20029;-93
2021/07/25 09:30:55;;;;;;;5.13;2.90;;;22.60;99.90;;;;;;5043479;28;20036;-93
2021/07/25 09:33:27;;;;;;;4.30;2.50;;;22.60;99.90;;;;;;5041210;28;20029;-93
2021/07/25 09:36:01;;;;;;;6.30;2.63;;;22.40;99.90;;;;;;5040877;28;20025;-92
2021/07/25 09:38:28;;;;;;;7.17;3.10;;;22.10;99.90;;;;;;5041106;28;20049;-92
2021/07/25 09:40:54;;;;;;;6.53;2.92;;;22.10;99.90;;;;;;5040934;28;20029;-92
2021/07/25 09:43:24;;;;;;;5.25;3.00;;;21.90;99.90;;;;;;5041018;28;20090;-92
2021/07/25 09:45:50;;;;;;;6.25;3.03;;;21.70;99.90;;;;;;5057667;28;20021;-91
2021/07/25 09:48:27;;;;;;;4.78;3.10;;;21.60;99.90;;;;;;5042118;28;20036;-91
2021/07/25 09:50:56;;;;;;;8.00;3.97;;;21.70;99.90;;;;;;5042278;28;20058;-91
2021/07/25 09:53:22;;;;;;;8.27;3.85;;;21.40;99.90;;;;;;5046125;28;20044;-91
2021/07/25 09:55:48;;;;;;;7.45;4.00;;;21.50;99.90;;;;;;5077796;28;20021;-90
2021/07/25 09:58:14;;;;;;;9.43;3.78;;;21.30;99.90;;;;;;5051533;28;20490;-93
2021/07/25 10:00:45;;;;;;;8.77;4.65;;;21.40;99.90;;;;;;5042443;28;20229;-91
2021/07/25 10:03:24;;;;;;;8.82;4.35;;;21.40;99.90;;;;;;5041191;28;20032;-91
2021/07/25 10:05:51;;;;;;;10.43;3.92;;;21.40;99.90;;;;;;5040004;28;20017;-91
2021/07/25 10:08:21;;;;;;;10.13;4.30;;;21.60;99.90;;;;;;5040063;28;20365;-91
2021/07/25 10:10:51;;;;;;;7.50;4.20;;;21.50;99.90;;;;;;5041085;28;20028;-90
2021/07/25 10:13:20;;;;;;;13.80;4.45;;;21.50;99.90;;;;;;5039890;28;20040;-92
2021/07/25 10:15:57;;;;;;;6.82;3.95;;;21.50;99.90;;;;;;5039837;28;20074;-92
2021/07/25 10:18:24;;;;;;;8.75;4.20;;;21.50;99.90;;;;;;5040559;28;20021;-93
2021/07/25 10:20:54;;;;;;;5.60;3.95;;;21.40;99.90;;;;;;5040408;28;20017;-91
2021/07/25 10:23:26;;;;;;;5.55;4.00;;;21.50;99.90;;;;;;5041322;28;20024;-91
2021/07/25 10:25:55;;;;;;;8.15;4.47;;;21.50;99.90;;;;;;5040564;28;20021;-92
2021/07/25 10:28:21;;;;;;;7.32;4.10;;;21.40;99.90;;;;;;5040875;28;20051;-91
2021/07/25 10:30:50;;;;;;;9.57;3.95;;;21.40;99.90;;;;;;5040108;28;20020;-92
2021/07/25 10:33:18;;;;;;;10.07;4.25;;;21.40;99.90;;;;;;5039911;28;20396;-91
2021/07/25 10:35:46;;;;;;;7.38;4.03;;;21.30;99.90;;;;;;5039746;28;20048;-90
2021/07/25 10:38:12;;;;;;;6.85;4.38;;;21.20;99.90;;;;;;5038700;28;20044;-90
2021/07/25 10:40:39;;;;;;;9.23;4.60;;;21.10;99.90;;;;;;5038735;28;20065;-87
2021/07/25 10:43:07;;;;;;;11.93;4.95;;;21.00;99.90;;;;;;5038443;28;20032;-87
2021/07/25 10:45:35;;;;;;;15.88;5.47;;;20.60;99.90;;;;;;5038265;28;20017;-87
2021/07/25 10:48:14;;;;;;;7.63;4.75;;;20.30;99.90;;;;;;5038661;28;20116;-88
2021/07/25 10:50:40;;;;;;;15.88;5.63;;;20.30;99.90;;;;;;5039428;28;20032;-88
2021/07/25 10:53:06;;;;;;;7.45;5.03;;;20.40;99.90;;;;;;5039498;28;20025;-90
2021/07/25 10:55:35;;;;;;;10.85;5.78;;;20.30;99.90;;;;;;5039318;28;20021;-88
2021/07/25 10:58:17;;;;;;;9.82;4.93;;;19.90;99.90;;;;;;5039827;28;20021;-90
2021/07/25 11:00:52;;;;;;;12.07;5.50;;;19.80;99.90;;;;;;5039476;28;20021;-92
2021/07/25 11:03:30;;;;;;;8.50;5.47;;;19.70;99.90;;;;;;5040537;28;20051;-93
2021/07/25 11:06:02;;;;;;;8.90;5.10;;;19.60;99.90;;;;;;5039399;28;20047;-92
2021/07/25 11:08:35;;;;;;;6.95;4.82;;;19.50;99.90;;;;;;5040145;28;20027;-92
2021/07/25 11:11:21;;;;;;;5.63;5.03;;;19.30;99.90;;;;;;5040030;28;20028;-93
2021/07/25 11:13:47;;;;;;;11.25;5.88;;;19.30;99.90;;;;;;5039613;28;20028;-92
2021/07/25 11:16:31;;;;;;;9.50;5.85;;;19.50;99.90;;;;;;5040212;28;20029;-93
2021/07/25 11:18:57;;;;;;;8.40;6.10;;;19.60;99.90;;;;;;5039305;28;20479;-93
2021/07/25 11:21:39;;;;;;;7.43;5.03;;;19.60;99.90;;;;;;5040134;28;20032;-93
2021/07/25 11:24:23;;;;;;;7.03;5.20;;;19.70;99.90;;;;;;5057490;28;20476;-91
2021/07/25 11:26:53;;;;;;;10.57;5.15;;;19.70;99.90;;;;;;5039361;28;20025;-92
2021/07/25 11:29:31;;;;;;;7.47;4.78;;;19.30;99.90;;;;;;5038811;28;20048;-93
2021/07/25 11:31:57;;;;;;;8.25;4.88;;;19.00;99.90;;;;;;5057246;28;20392;-92
2021/07/25 11:34:25;;;;;;;7.70;4.13;;;19.00;99.90;;;;;;5039213;28;20111;-90
2021/07/25 11:36:55;;;;;;;7.72;4.20;;;19.00;99.90;;;;;;5038235;28;20463;-90
2021/07/25 11:39:22;;;;;;;6.90;4.18;;;19.00;99.90;;;;;;5039410;28;20543;-93
2021/07/25 11:41:47;;;;;;;6.63;4.53;;;18.80;99.90;;;;;;5039786;28;20163;-93
2021/07/25 11:44:22;;;;;;;11.35;5.05;;;18.90;99.90;;;;;;5039473;28;20486;-93
2021/07/25 11:46:48;;;;;;;7.03;4.60;;;19.00;99.90;;;;;;5038984;28;20025;-94
2021/07/25 11:49:16;;;;;;;6.50;4.47;;;19.20;99.90;;;;;;5038888;28;20263;-92
2021/07/25 11:51:48;;;;;;;8.32;4.15;;;19.10;99.90;;;;;;5038671;28;20029;-94
2021/07/25 11:54:18;;;;;;;7.28;4.03;;;19.30;99.90;;;;;;5036739;28;20029;-93
2021/07/25 11:56:56;;;;;;;6.70;4.20;;;19.40;99.90;;;;;;5056143;28;20033;-93
2021/07/25 11:59:22;;;;;;;6.57;4.18;;;19.60;99.90;;;;;;5039406;28;20025;-91
2021/07/25 12:01:49;;;;;;;6.38;3.90;;;19.80;99.90;;;;;;5049676;28;20047;-91
2021/07/25 12:04:33;;;;;;;8.02;4.05;;;20.00;99.90;;;;;;5050987;28;20087;-91
2021/07/25 12:07:00;;;;;;;4.97;3.67;;;20.20;99.90;;;;;;5040403;28;20389;-92
2021/07/25 12:09:26;;;;;;;6.00;3.60;;;20.00;99.90;;;;;;5039396;28;20021;-92
2021/07/25 12:12:09;;;;;;;6.57;3.88;;;20.10;99.90;;;;;;5039563;28;20029;-93
2021/07/25 12:14:38;;;;;;;5.95;3.70;;;20.30;99.90;;;;;;5054985;28;20027;-91
2021/07/25 12:17:05;;;;;;;5.63;3.90;;;20.50;99.90;;;;;;5037350;28;20017;-92
2021/07/25 12:19:39;;;;;;;4.63;3.65;;;20.80;99.90;;;;;;5038363;28;20036;-92
2021/07/25 12:22:09;;;;;;;5.82;4.35;;;20.90;99.90;;;;;;5038354;28;20024;-91
2021/07/25 12:24:39;;;;;;;7.60;3.03;;;21.10;99.90;;;;;;5037081;28;20473;-91
2021/07/25 12:27:22;;;;;;;6.93;3.85;;;21.40;99.90;;;;;;5037042;28;20017;-92
2021/07/25 12:29:48;;;;;;;5.93;3.03;;;21.80;99.90;;;;;;5036949;28;20017;-91
2021/07/25 12:32:26;;;;;;;5.90;3.25;;;22.00;99.90;;;;;;5037376;28;20481;-92
2021/07/25 12:34:55;;;;;;;9.95;3.97;;;22.20;99.90;;;;;;5037833;28;20066;-92
2021/07/25 12:38:00;;;;;;;4.05;3.10;;;22.80;99.90;;;;;;5055025;28;20052;-91
2021/07/25 12:40:31;;;;;;;5.32;2.95;;;22.70;99.90;;;;;;5037138;28;20561;-89
2021/07/25 12:42:56;;;;;;;5.05;3.13;;;22.30;99.90;;;;;;5053427;28;20481;-90
2021/07/25 12:45:35;;;;;;;4.50;3.35;;;22.30;99.90;;;;;;5037574;28;20025;-91
2021/07/25 12:48:25;;;;;;;4.30;3.15;;;22.40;99.90;;;;;;5037523;28;20500;-91
2021/07/25 12:53:55;;;;;;;3.80;3.40;;;21.50;99.90;;;;;;5054871;28;20021;-92
2021/07/25 12:56:28;;;;;;;7.95;3.25;;;21.80;99.90;;;;;;5037417;28;20124;-91